createdAt,value
2019-03-08T00:08:29.180Z,1
2019-03-08T00:19:10.213Z,1
2019-03-08T00:29:52.481Z,1
2019-03-08T00:40:33.338Z,1
2019-03-08T00:51:17.923Z,1
2019-03-08T01:02:02.928Z,1
2019-03-08T01:12:45.894Z,1
2019-03-08T01:23:26.969Z,1
2019-03-08T01:34:09.609Z,1
2019-03-08T01:44:51.804Z,1
2019-03-08T01:55:32.696Z,2
2019-03-08T02:06:16.538Z,2
2019-03-08T02:17:00.528Z,2
2019-03-08T02:27:43.985Z,1
2019-03-08T02:38:27.500Z,1
2019-03-08T02:49:07.778Z,1
2019-03-08T02:59:52.349Z,1
2019-03-08T03:10:35.699Z,1
2019-03-08T03:21:20.655Z,2
2019-03-08T03:32:03.925Z,1
2019-03-08T03:42:46.383Z,1
2019-03-08T03:53:27.167Z,2
2019-03-08T04:04:10.742Z,1
2019-03-08T04:14:46.508Z,1
2019-03-08T04:25:30.125Z,1
2019-03-08T04:36:13.484Z,2
2019-03-08T04:46:57.206Z,2
2019-03-08T04:57:41.622Z,1
2019-03-08T05:08:24.747Z,1
2019-03-08T05:19:06.776Z,1
2019-03-08T05:29:49.362Z,1
2019-03-08T05:40:27.400Z,1
2019-03-08T05:51:11.780Z,2
2019-03-08T06:01:54.905Z,2
2019-03-08T06:12:36.102Z,1
2019-03-08T06:23:19.918Z,3
2019-03-08T06:33:56.848Z,3
2019-03-08T06:44:36.515Z,3
2019-03-08T06:55:18.953Z,3
2019-03-08T07:06:03.307Z,3
2019-03-08T07:16:43.472Z,3
2019-03-08T07:27:28.599Z,3
2019-03-08T07:38:11.984Z,3
2019-03-08T07:48:53.615Z,2
2019-03-08T07:59:31.856Z,1
2019-03-08T08:10:13.280Z,1
2019-03-08T08:20:51.806Z,3
2019-03-08T08:31:35.353Z,3
2019-03-08T08:42:11.625Z,3
2019-03-08T08:52:53.490Z,15
2019-03-08T09:03:32.654Z,9
2019-03-08T09:14:10.655Z,7
2019-03-08T09:24:46.528Z,8
2019-03-08T09:35:26.578Z,8
2019-03-08T09:46:12.211Z,9
2019-03-08T09:56:46.192Z,9
2019-03-08T10:07:25.992Z,8
2019-03-08T10:18:08.223Z,8
2019-03-08T10:28:45.148Z,5
2019-03-08T10:39:27.936Z,5
2019-03-08T10:50:07.473Z,5
2019-03-08T11:00:48.739Z,3
2019-03-08T11:11:29.000Z,3
2019-03-08T11:22:08.933Z,3
2019-03-08T11:32:39.492Z,3
2019-03-08T11:43:15.632Z,3
2019-03-08T11:53:56.218Z,4
2019-03-08T12:04:22.318Z,5
2019-03-08T12:15:02.641Z,3
2019-03-08T20:07:13.085Z,3
2019-03-08T20:17:56.364Z,4
2019-03-08T20:28:37.871Z,4
2019-03-08T20:39:18.687Z,3
2019-03-08T20:50:01.921Z,3
2019-03-08T21:00:43.103Z,3
2019-03-08T21:11:27.536Z,3
2019-03-08T21:22:12.135Z,3
2019-03-08T21:32:46.611Z,3
2019-03-08T21:43:28.366Z,3
2019-03-08T21:54:03.454Z,3
2019-03-08T22:04:40.110Z,2
2019-03-08T22:15:12.276Z,3
2019-03-08T22:25:47.426Z,2
2019-03-08T22:36:27.255Z,2
2019-03-08T22:47:01.603Z,2
2019-03-08T22:57:43.792Z,2
2019-03-08T23:08:26.883Z,2
2019-03-08T23:19:07.887Z,2
2019-03-08T23:29:51.808Z,2
2019-03-08T23:40:34.550Z,2
2019-03-08T23:51:18.619Z,2
